createdAt,value
2022-08-27T00:04:14.848Z,2.75
2022-08-27T00:09:26.583Z,2.70
2022-08-27T00:14:32.141Z,3.20
2022-08-27T00:19:36.613Z,2.80
2022-08-27T00:29:52.650Z,2.90
2022-08-27T00:34:55.267Z,3.47
2022-08-27T00:39:58.145Z,2.95
2022-08-27T00:45:01.422Z,3.25
2022-08-27T00:50:10.150Z,3.22
2022-08-27T00:55:18.607Z,3.50
2022-08-27T01:00:21.643Z,3.15
2022-08-27T01:05:28.259Z,3.00
2022-08-27T01:10:50.428Z,2.97
2022-08-27T01:16:00.029Z,3.40
2022-08-27T01:21:05.688Z,3.47
2022-08-27T01:26:10.214Z,3.63
2022-08-27T01:36:15.509Z,3.00
2022-08-27T01:41:19.207Z,3.45
2022-08-27T01:46:24.379Z,3.13
2022-08-27T01:51:27.121Z,3.45
2022-08-27T01:56:29.708Z,3.28
2022-08-27T02:01:32.838Z,3.40
2022-08-27T02:06:35.403Z,2.95
2022-08-27T02:11:44.755Z,2.90
2022-08-27T02:16:52.171Z,3.40
2022-08-27T02:21:56.860Z,3.90
2022-08-27T02:26:59.509Z,3.30
2022-08-27T02:32:02.811Z,3.28
2022-08-27T02:37:06.065Z,3.28
2022-08-27T02:42:09.338Z,3.75
2022-08-27T02:47:12.379Z,3.63
2022-08-27T02:52:16.604Z,3.53
2022-08-27T02:57:27.801Z,3.20
2022-08-27T03:02:31.228Z,3.13
2022-08-27T03:07:34.008Z,3.25
2022-08-27T03:12:36.975Z,3.22
2022-08-27T03:17:58.320Z,3.40
2022-08-27T03:23:22.638Z,3.20
2022-08-27T03:28:28.067Z,3.53
2022-08-27T03:33:37.410Z,3.53
2022-08-27T03:38:40.283Z,3.70
2022-08-27T03:43:43.031Z,3.30
2022-08-27T03:48:45.563Z,3.47
2022-08-27T03:53:49.158Z,3.38
2022-08-27T03:58:53.012Z,3.47
2022-08-27T04:03:55.575Z,3.28
2022-08-27T04:08:58.155Z,3.40
2022-08-27T04:14:04.479Z,3.20
2022-08-27T04:19:27.687Z,3.38
2022-08-27T04:24:33.160Z,3.45
2022-08-27T04:29:35.762Z,3.33
2022-08-27T04:34:39.082Z,3.08
2022-08-27T04:39:41.724Z,3.40
2022-08-27T04:44:47.779Z,3.30
2022-08-27T04:49:50.360Z,3.03
2022-08-27T04:54:53.377Z,3.28
2022-08-27T04:59:57.017Z,3.33
2022-08-27T05:05:00.237Z,3.50
2022-08-27T05:10:05.387Z,3.25
2022-08-27T05:15:10.213Z,3.50
2022-08-27T05:20:13.290Z,4.13
2022-08-27T05:25:16.098Z,3.72
2022-08-27T05:30:19.040Z,4.22
2022-08-27T05:35:21.804Z,4.00
2022-08-27T05:40:24.533Z,4.32
2022-08-27T05:45:27.323Z,4.63
2022-08-27T05:50:31.288Z,4.27
2022-08-27T05:55:39.234Z,4.00
2022-08-27T06:01:03.516Z,3.80
2022-08-27T06:06:11.415Z,3.97
2022-08-27T06:11:18.030Z,4.57
2022-08-27T06:16:20.731Z,5.80
2022-08-27T06:21:24.810Z,4.65
2022-08-27T06:26:28.197Z,4.05
2022-08-27T06:31:30.955Z,4.53
2022-08-27T06:36:39.133Z,4.40
2022-08-27T06:41:43.220Z,4.30
2022-08-27T06:46:48.648Z,3.90
2022-08-27T06:51:51.270Z,3.90
2022-08-27T06:56:53.899Z,3.60
2022-08-27T07:01:57.116Z,4.07
2022-08-27T07:07:01.169Z,3.17
2022-08-27T07:12:04.408Z,3.38
2022-08-27T07:17:10.863Z,3.60
2022-08-27T07:22:15.016Z,3.17
2022-08-27T07:27:17.789Z,3.15
2022-08-27T07:32:20.413Z,2.70
2022-08-27T07:37:23.138Z,2.97
2022-08-27T07:42:48.496Z,3.03
2022-08-27T07:47:51.863Z,3.03
2022-08-27T07:52:54.438Z,2.57
2022-08-27T07:57:57.229Z,2.70
2022-08-27T08:03:00.449Z,2.45
2022-08-27T08:08:06.297Z,2.27
2022-08-27T08:13:08.926Z,2.42
2022-08-27T08:18:12.177Z,2.70
2022-08-27T08:23:14.933Z,2.58
2022-08-27T08:28:17.717Z,2.50
2022-08-27T08:33:20.955Z,2.38
2022-08-27T08:38:23.603Z,2.40
2022-08-27T08:43:43.992Z,2.53
2022-08-27T08:48:50.483Z,2.40
2022-08-27T08:53:57.358Z,2.45
2022-08-27T08:59:04.119Z,2.70
2022-08-27T09:04:09.992Z,2.40
2022-08-27T09:09:41.101Z,2.80
2022-08-27T09:14:52.497Z,2.33
2022-08-27T09:19:57.054Z,2.53
2022-08-27T09:25:29.356Z,2.55
2022-08-27T09:30:41.074Z,2.42
2022-08-27T09:35:46.111Z,2.10
2022-08-27T09:40:53.499Z,2.63
2022-08-27T09:46:18.469Z,2.70
2022-08-27T09:51:24.039Z,2.25
2022-08-27T09:56:33.851Z,2.40
2022-08-27T10:02:01.017Z,2.33
2022-08-27T10:07:30.180Z,1.98
2022-08-27T10:12:59.802Z,2.20
2022-08-27T10:18:42.109Z,2.28
2022-08-27T10:24:17.126Z,2.22
2022-08-27T10:29:36.641Z,2.20
2022-08-27T10:34:45.285Z,2.40
2022-08-27T10:40:06.242Z,2.35
2022-08-27T10:45:31.540Z,2.60
2022-08-27T10:50:42.750Z,2.63
2022-08-27T10:55:52.636Z,3.17
2022-08-27T11:01:05.807Z,2.15
2022-08-27T11:06:30.070Z,2.35
2022-08-27T11:12:10.329Z,2.30
2022-08-27T11:22:26.450Z,2.40
2022-08-27T11:27:31.260Z,2.22
2022-08-27T11:32:55.828Z,3.47
2022-08-27T11:38:21.565Z,2.10
2022-08-27T11:43:28.319Z,2.22
2022-08-27T11:48:34.449Z,2.22
2022-08-27T11:53:51.976Z,2.35
2022-08-27T11:58:55.274Z,1.92
2022-08-27T12:04:07.213Z,2.13
2022-08-27T12:09:20.470Z,2.15
2022-08-27T12:19:48.342Z,2.07
2022-08-27T12:24:57.252Z,2.50
2022-08-27T12:30:25.740Z,2.30
2022-08-27T12:35:48.097Z,2.58
2022-08-27T12:41:00.208Z,2.47
2022-08-27T12:46:07.230Z,2.35
2022-08-27T12:51:24.954Z,2.30
2022-08-27T12:56:58.244Z,2.08
2022-08-27T13:02:41.499Z,2.33
2022-08-27T13:07:47.151Z,2.50
2022-08-27T13:13:06.839Z,2.25
2022-08-27T13:18:12.002Z,2.30
2022-08-27T13:23:24.061Z,2.63
2022-08-27T13:28:30.492Z,2.00
2022-08-27T13:33:35.250Z,2.63
2022-08-27T13:38:43.027Z,2.55
2022-08-27T13:43:48.548Z,2.42
2022-08-27T13:48:53.533Z,2.08
2022-08-27T13:54:15.809Z,2.10
2022-08-27T13:59:21.458Z,2.25
2022-08-27T14:04:35.542Z,1.92
2022-08-27T14:09:45.486Z,2.28
2022-08-27T14:14:54.512Z,2.10
2022-08-27T14:20:01.789Z,2.30
2022-08-27T14:25:05.410Z,2.15
2022-08-27T14:35:13.704Z,1.92
2022-08-27T14:40:27.698Z,2.00
2022-08-27T14:45:30.318Z,2.00
2022-08-27T14:50:32.934Z,2.33
2022-08-27T14:55:35.757Z,2.33
2022-08-27T15:00:38.723Z,2.00
2022-08-27T15:05:41.484Z,2.22
2022-08-27T15:10:45.707Z,2.15
2022-08-27T15:15:48.439Z,2.10
2022-08-27T15:20:54.878Z,2.28
2022-08-27T15:25:57.514Z,1.93
2022-08-27T15:31:00.682Z,2.60
2022-08-27T15:36:04.392Z,2.15
2022-08-27T15:41:07.710Z,2.53
2022-08-27T15:46:10.452Z,2.28
2022-08-27T15:51:13.713Z,2.20
2022-08-27T15:56:16.279Z,1.83
2022-08-27T16:01:30.743Z,2.00
2022-08-27T16:06:34.953Z,2.40
2022-08-27T16:11:37.544Z,1.90
2022-08-27T16:16:44.560Z,2.38
2022-08-27T16:21:47.946Z,1.75
2022-08-27T16:26:53.257Z,2.10
2022-08-27T16:32:00.655Z,1.88
2022-08-27T16:37:03.937Z,2.00
2022-08-27T16:42:10.229Z,1.90
2022-08-27T16:47:13.286Z,2.92
2022-08-27T16:52:15.894Z,2.65
2022-08-27T16:57:18.929Z,2.67
2022-08-27T17:02:31.329Z,3.10
2022-08-27T17:07:34.039Z,2.70
2022-08-27T17:12:37.664Z,2.33
2022-08-27T17:17:41.105Z,2.55
2022-08-27T17:22:43.732Z,2.90
2022-08-27T17:27:46.273Z,2.70
2022-08-27T17:32:49.332Z,2.60
2022-08-27T17:37:52.142Z,2.90
2022-08-27T17:42:54.732Z,3.05
2022-08-27T17:47:57.464Z,2.50
2022-08-27T17:53:00.081Z,3.00
2022-08-27T17:58:04.396Z,3.17
2022-08-27T18:03:19.134Z,2.87
2022-08-27T18:08:22.299Z,3.40
2022-08-27T18:13:26.991Z,2.88
2022-08-27T18:18:29.897Z,3.30
2022-08-27T18:23:34.011Z,3.05
2022-08-27T18:28:37.085Z,3.45
2022-08-27T18:33:42.717Z,3.08
2022-08-27T18:38:47.146Z,3.13
2022-08-27T18:43:50.154Z,3.00
2022-08-27T18:48:52.927Z,3.10
2022-08-27T18:53:55.548Z,3.03
2022-08-27T18:58:58.783Z,3.20
2022-08-27T19:04:01.620Z,3.22
2022-08-27T19:09:04.961Z,3.47
2022-08-27T19:14:07.717Z,3.67
2022-08-27T19:19:12.506Z,3.50
2022-08-27T19:24:15.163Z,3.22
2022-08-27T19:29:18.318Z,3.50
2022-08-27T19:34:25.164Z,3.28
2022-08-27T19:39:28.125Z,3.28
2022-08-27T19:44:31.272Z,3.20
2022-08-27T19:49:34.047Z,3.85
2022-08-27T19:54:51.661Z,3.17
2022-08-27T19:59:59.739Z,3.78
2022-08-27T20:05:17.473Z,3.05
2022-08-27T20:10:25.814Z,3.90
2022-08-27T20:15:35.738Z,3.83
2022-08-27T20:20:40.570Z,3.42
2022-08-27T20:25:46.836Z,3.03
2022-08-27T20:30:49.561Z,4.03
2022-08-27T20:35:57.122Z,3.97
2022-08-27T20:40:59.929Z,3.95
2022-08-27T20:46:03.117Z,4.30
2022-08-27T20:51:06.072Z,3.45
2022-08-27T20:56:08.673Z,3.33
2022-08-27T21:01:11.757Z,3.72
2022-08-27T21:06:15.794Z,3.67
2022-08-27T21:11:18.536Z,4.10
2022-08-27T21:16:39.977Z,3.67
2022-08-27T21:21:42.767Z,4.13
2022-08-27T21:26:47.068Z,3.70
2022-08-27T21:31:51.696Z,3.80
2022-08-27T21:36:54.640Z,3.75
2022-08-27T21:41:57.181Z,4.68
2022-08-27T21:47:01.737Z,4.47
2022-08-27T21:52:06.675Z,3.78
2022-08-27T21:57:10.371Z,3.80
2022-08-27T22:07:42.870Z,3.92
2022-08-27T22:12:45.791Z,4.18
2022-08-27T22:17:51.260Z,4.40
2022-08-27T22:22:54.154Z,4.07
2022-08-27T22:27:57.038Z,4.18
2022-08-27T22:32:59.906Z,4.85
2022-08-27T22:38:02.571Z,4.10
2022-08-27T22:43:06.739Z,4.40
2022-08-27T22:48:09.423Z,3.83
2022-08-27T22:53:12.521Z,4.53
2022-08-27T22:58:15.479Z,4.13
2022-08-27T23:03:20.667Z,4.28
2022-08-27T23:08:23.496Z,4.90
2022-08-27T23:13:26.447Z,4.40
2022-08-27T23:18:29.415Z,4.72
2022-08-27T23:23:33.013Z,4.60
2022-08-27T23:28:35.489Z,4.85
2022-08-27T23:33:38.536Z,4.75
2022-08-27T23:38:41.099Z,4.30
2022-08-27T23:43:44.999Z,4.53
2022-08-27T23:48:47.615Z,4.57
2022-08-27T23:53:50.344Z,4.40
2022-08-27T23:58:52.887Z,4.93
